Lynnwood, Washington
Current Conditions -  °F | °C
As of 5:53 AM on Thursday 29 Jan 2015 (Local Time) from KPAE Reporting Station
Overcast Overcast  
Wind Chill: 40°   Ceiling: 7500
Heat Index: 40°   Visibility: 10mi
Dew Point: 37°   Wind: 3mph
Humidity: 89%   Direction: NA
Pressure: 30.35"   Gusts: NA
Location:  47.83°N, 122.29°W
Report Text: KPAE 291353Z AUTO VRB03KT 10SM OVC075 04/03 A3035 RMK AO2 SLP282 T00440028
Loading
Personal Weather Stations






























Interactive Weather Map New forecast layout! Learn more

10-Day Weather Forecast

Advertisements
Track Severe Weather on mobile